Kezdőlap
METAR-TAF:

METAR-TAF

Repülőterek :

Glencoe Municipal Airport (Vernon Perschau Field)

Glencoe, Minnesota, Amerikai Egyesült Államok

földrajzi szélesség: 44-45-22N, földrajzi hosszúság: 094-04-52W, magasság: 302 m

Jelenlegi meteorológiai megfigyelések

A jelentés 23 perccel ezelõtt készült, 07:35 UTC
Keleti szél 9 kt
Hőmérséklet 22°C
Páratartalom 88%
Légköri nyomás 1010 hPa
Látótávolság: 16.1 km
Borult 1800 lábon
zivatar a közelben

METAR: KGYL 100735Z AUTO 09009KT 10SM VCTS OVC018 22/20 A2983 RMK AO2 LTG DSNT N THRU S T02170196

Idő: 02:58 (07:58 UTC)


TAF: hiányzik

Meteorológiai megfigyelések és előrejelzések több, mint 4000 repülőtéren (METAR és TAF jelentéseket).

A térképen piros és sárga pontok jelzik az elérhető meteorológiai állomásokat.

Mozgassa az egeret a pont fölött, hogy megjelenjen az állomás neve.

Azután kattintson az időjárási megfigyelések és előrejelzések megtekintéséhez.

A térkép megváltoztatása: kattintson a fekete keresztel jelölt zöld gombra ráközelítéshez, a vonallal jelölt zöld gombra távolításhoz, vagy a zöld nyilakra a szomszédos térképek eléréséhez.


METAR-TAF: